KCVO - Corvallis Muni A, Oregon
Updated: Wed, 20-Jan-2021 5:56pm PST
Mostly Cloudy
Mostly Cloudy
 Wind from E
Wind: E 5 mph , 7 km/h
Temperature: 43°F , 6°C
Wind Chill: 40°F , 4°C
Dew Point: 37°F , 3°C
Humidity: 81%
Barometer: 30.14 inHg , 1020.7 hPa
Clouds: Mostly Cloudy
Visibility: 10 miles , 16 km
Cloud details: Mostly Cloudy 11000 ft
2021/01/21 01:56 KCVO 210156Z AUTO 09004KT 10SM BKN110 06/03 A3014 RMK AO2 SLP210 T00560033